createdAt,value
2018-11-13T00:00:58.495Z,101284.98
2018-11-13T00:03:29.052Z,101279.12
2018-11-13T00:05:59.662Z,101281.02
2018-11-13T00:08:30.311Z,101276.16
2018-11-13T00:11:00.889Z,101279.12
2018-11-13T00:13:31.293Z,101284.28
2018-11-13T00:16:01.607Z,101276.92
2018-11-13T00:18:31.920Z,101278.28
2018-11-13T00:21:02.494Z,101281.45
2018-11-13T00:23:32.999Z,101281.84
2018-11-13T00:26:03.585Z,101278.81
2018-11-13T00:28:34.092Z,101265.33
2018-11-13T00:31:04.651Z,101261.44
2018-11-13T00:33:35.762Z,101273.50
2018-11-13T00:36:06.634Z,101272.30
2018-11-13T00:38:37.268Z,101268.94
2018-11-13T00:41:08.429Z,101269.06
2018-11-13T00:43:38.892Z,101273.11
2018-11-13T00:46:09.439Z,101273.17
2018-11-13T00:48:39.986Z,101269.62
2018-11-13T00:51:10.579Z,101272.67
2018-11-13T00:53:41.135Z,101275.27
2018-11-13T00:56:11.777Z,101261.91
2018-11-13T00:58:42.087Z,101261.09
2018-11-13T01:01:12.500Z,101267.48
2018-11-13T01:03:43.098Z,101266.20
2018-11-13T01:06:13.819Z,101274.75
2018-11-13T01:08:44.156Z,101275.91
2018-11-13T01:11:14.438Z,101277.12
2018-11-13T01:13:45.387Z,101278.41
2018-11-13T01:16:15.675Z,101275.09
2018-11-13T01:18:46.040Z,101270.52
2018-11-13T01:21:16.550Z,101266.20
2018-11-13T01:23:47.156Z,101260.39
2018-11-13T01:26:17.698Z,101264.04
2018-11-13T01:28:48.193Z,101274.41
2018-11-13T01:31:18.639Z,101278.11
2018-11-13T01:33:48.957Z,101283.70
2018-11-13T01:36:19.419Z,101294.75
2018-11-13T01:38:49.775Z,101310.25
2018-11-13T01:41:20.180Z,101310.66
2018-11-13T01:43:50.643Z,101306.30
2018-11-13T01:46:21.315Z,101313.65
2018-11-13T01:48:51.732Z,101316.22
2018-11-13T01:51:22.132Z,101316.64
2018-11-13T01:53:52.492Z,101319.24
2018-11-13T01:56:22.767Z,101326.13
2018-11-13T01:58:53.968Z,101337.95
2018-11-13T02:01:24.227Z,101335.70
2018-11-13T02:03:54.601Z,101332.06
2018-11-13T02:06:25.112Z,101339.03
2018-11-13T02:08:55.510Z,101337.27
2018-11-13T02:11:26.066Z,101332.77
2018-11-13T02:13:56.458Z,101320.69
2018-11-13T02:16:26.903Z,101314.21
2018-11-13T02:18:57.305Z,101308.06
2018-11-13T02:21:27.796Z,101306.48
2018-11-13T02:23:58.271Z,101298.64
2018-11-13T02:26:28.972Z,101307.30
2018-11-13T02:28:59.467Z,101305.88
2018-11-13T02:31:29.699Z,101286.97
2018-11-13T02:34:00.104Z,101280.49
2018-11-13T02:36:30.584Z,101265.23
2018-11-13T02:39:00.967Z,101265.11
2018-11-13T02:41:31.963Z,101260.58
2018-11-13T02:44:02.467Z,101262.28
2018-11-13T02:46:33.024Z,101263.08
2018-11-13T02:49:04.715Z,101268.17
2018-11-13T02:51:35.622Z,101269.41
2018-11-13T02:54:06.280Z,101267.25
2018-11-13T02:56:36.912Z,101260.33
2018-11-13T02:59:07.375Z,101257.80
2018-11-13T03:01:38.046Z,101249.09
2018-11-13T03:04:08.652Z,101249.55
2018-11-13T03:06:39.430Z,101256.63
2018-11-13T03:09:09.923Z,101255.30
2018-11-13T03:11:40.300Z,101255.73
2018-11-13T03:14:11.187Z,101259.53
2018-11-13T03:16:41.742Z,101263.36
2018-11-13T03:19:12.276Z,101260.08
2018-11-13T03:21:42.483Z,101256.59
2018-11-13T03:24:12.788Z,101264.47
2018-11-13T03:26:43.371Z,101269.59
2018-11-13T03:29:14.070Z,101283.86
2018-11-13T03:31:44.519Z,101278.20
2018-11-13T03:34:14.946Z,101283.86
2018-11-13T03:36:45.293Z,101285.09
2018-11-13T03:39:15.673Z,101289.81
2018-11-13T03:41:46.256Z,101277.68
2018-11-13T03:44:16.795Z,101271.14
2018-11-13T03:46:47.371Z,101274.19
2018-11-13T03:49:17.951Z,101265.52
2018-11-13T03:51:48.266Z,101264.66
2018-11-13T03:54:18.659Z,101272.00
2018-11-13T03:56:48.912Z,101278.92
2018-11-13T03:59:19.363Z,101284.91
2018-11-13T04:01:49.740Z,101293.46
2018-11-13T04:04:20.096Z,101284.34
2018-11-13T04:06:51.076Z,101272.71
2018-11-13T04:09:21.572Z,101268.88
2018-11-13T04:11:51.798Z,101270.98
2018-11-13T04:14:22.212Z,101286.95
2018-11-13T04:16:52.769Z,101284.72
2018-11-13T04:19:23.319Z,101293.70
2018-11-13T04:21:59.792Z,101295.00
2018-11-13T04:24:30.003Z,101294.94
2018-11-13T04:27:00.636Z,101300.47
2018-11-13T04:29:31.435Z,101295.28
2018-11-13T04:32:02.068Z,101297.01
2018-11-13T04:34:32.544Z,101294.41
2018-11-13T04:37:02.968Z,101289.06
2018-11-13T04:39:33.396Z,101293.39
2018-11-13T04:42:04.024Z,101294.87
2018-11-13T04:44:34.469Z,101294.35
2018-11-13T04:47:05.111Z,101296.23
2018-11-13T04:49:35.627Z,101296.11
2018-11-13T04:52:06.304Z,101289.91
2018-11-13T04:54:36.616Z,101300.19
2018-11-13T04:57:07.439Z,101303.16
2018-11-13T04:59:37.756Z,101312.76
2018-11-13T05:02:08.263Z,101320.81
2018-11-13T05:04:38.657Z,101329.38
2018-11-13T05:07:09.106Z,101338.02
2018-11-13T05:09:39.571Z,101347.04
2018-11-13T05:12:10.276Z,101354.36
2018-11-13T05:14:40.775Z,101359.61
2018-11-13T05:17:11.908Z,101349.11
2018-11-13T05:19:42.319Z,101336.53
2018-11-13T05:22:12.938Z,101338.36
2018-11-13T05:24:43.311Z,101343.61
2018-11-13T05:27:13.567Z,101349.08
2018-11-13T05:29:43.851Z,101349.52
2018-11-13T05:32:14.256Z,101348.27
2018-11-13T05:34:44.615Z,101343.08
2018-11-13T05:37:14.993Z,101341.91
2018-11-13T05:39:45.596Z,101340.16
2018-11-13T05:42:16.039Z,101338.45
2018-11-13T05:44:46.351Z,101326.44
2018-11-13T05:47:16.854Z,101319.05
2018-11-13T05:49:47.386Z,101316.09
2018-11-13T05:52:20.597Z,101310.38
2018-11-13T05:54:51.143Z,101304.02
2018-11-13T05:57:21.728Z,101295.25
2018-11-13T05:59:52.179Z,101290.59
2018-11-13T06:02:22.539Z,101294.53
2018-11-13T06:04:52.954Z,101309.27
2018-11-13T06:07:23.623Z,101308.67
2018-11-13T06:09:54.569Z,101318.98
2018-11-13T06:12:25.112Z,101329.77
2018-11-13T06:14:55.718Z,101335.84
2018-11-13T06:17:26.226Z,101349.62
2018-11-13T06:19:56.677Z,101366.41
2018-11-13T06:22:27.148Z,101378.52
2018-11-13T06:24:57.514Z,101376.15
2018-11-13T06:27:28.094Z,101379.03
2018-11-13T06:29:58.509Z,101390.70
2018-11-13T06:32:29.017Z,101393.52
2018-11-13T06:34:59.267Z,101398.12
2018-11-13T06:37:29.722Z,101404.17
2018-11-13T06:40:00.620Z,101411.21
2018-11-13T06:42:31.107Z,101414.16
2018-11-13T06:45:01.608Z,101417.83
2018-11-13T06:47:32.083Z,101412.39
2018-11-13T06:50:02.586Z,101417.48
2018-11-13T06:52:33.347Z,101419.41
2018-11-13T06:55:07.879Z,101418.89
2018-11-13T06:57:38.525Z,101413.98
2018-11-13T07:00:10.944Z,101420.80
2018-11-13T07:02:41.428Z,101412.41
2018-11-13T07:05:15.068Z,101411.62
2018-11-13T07:07:45.843Z,101405.08
2018-11-13T07:10:17.636Z,101411.66
2018-11-13T07:12:49.316Z,101424.91
2018-11-13T07:15:22.791Z,101418.68
2018-11-13T07:17:54.625Z,101413.70
2018-11-13T07:20:26.073Z,101410.89
2018-11-13T07:22:56.319Z,101398.88
2018-11-13T07:25:26.918Z,101397.67
2018-11-13T07:27:57.312Z,101394.70
2018-11-13T07:30:28.375Z,101426.73
2018-11-13T07:32:58.870Z,101428.50
2018-11-13T07:35:29.275Z,101414.59
2018-11-13T07:38:00.792Z,101417.71
2018-11-13T07:40:31.228Z,101432.33
2018-11-13T07:43:01.787Z,101440.48
2018-11-13T07:45:32.421Z,101436.09
2018-11-13T07:48:02.909Z,101435.27
2018-11-13T07:50:33.677Z,101433.16
2018-11-13T07:53:04.163Z,101438.14
2018-11-13T07:55:34.641Z,101439.54
2018-11-13T07:58:05.887Z,101449.64
2018-11-13T08:00:36.423Z,101448.06
2018-11-13T08:03:36.623Z,101452.24
2018-11-13T08:06:07.426Z,101463.52
2018-11-13T08:08:37.935Z,101478.23
2018-11-13T08:11:08.546Z,101472.27
2018-11-13T08:13:39.311Z,101469.61
2018-11-13T08:16:09.804Z,101468.53
2018-11-13T08:18:40.251Z,101467.29
2018-11-13T08:21:10.786Z,101465.72
2018-11-13T08:23:41.231Z,101474.44
2018-11-13T08:26:11.819Z,101485.38
2018-11-13T08:28:42.177Z,101466.70
2018-11-13T08:31:12.675Z,101453.70
2018-11-13T08:33:43.159Z,101472.23
2018-11-13T08:36:13.682Z,101469.66
2018-11-13T08:38:44.028Z,101473.40
2018-11-13T08:41:14.516Z,101471.70
2018-11-13T08:43:45.036Z,101455.16
2018-11-13T08:46:15.600Z,101462.06
2018-11-13T08:48:46.124Z,101470.39
2018-11-13T08:51:16.560Z,101460.55
2018-11-13T08:53:47.344Z,101469.15
2018-11-13T08:56:17.736Z,101462.80
2018-11-13T08:58:48.011Z,101461.44
2018-11-13T09:01:18.583Z,101469.70
2018-11-13T09:03:48.966Z,101478.67
2018-11-13T09:06:19.819Z,101484.80
2018-11-13T09:08:50.206Z,101484.67
2018-11-13T09:11:21.667Z,101484.46
2018-11-13T09:13:52.333Z,101494.13
2018-11-13T09:16:23.176Z,101491.37
2018-11-13T09:18:55.627Z,101483.71
2018-11-13T09:21:25.997Z,101478.81
2018-11-13T09:23:56.555Z,101484.59
2018-11-13T09:26:26.915Z,101482.20
2018-11-13T09:28:57.273Z,101481.22
2018-11-13T09:31:27.697Z,101472.69
2018-11-13T09:33:57.993Z,101474.47
2018-11-13T09:36:28.380Z,101477.39
2018-11-13T09:38:58.788Z,101471.39
2018-11-13T09:41:29.176Z,101479.24
2018-11-13T09:43:59.630Z,101482.63
2018-11-13T09:46:30.087Z,101479.19
2018-11-13T09:49:00.548Z,101482.63
2018-11-13T09:51:30.988Z,101488.84
2018-11-13T09:54:01.358Z,101489.70
2018-11-13T09:56:32.118Z,101492.20
2018-11-13T09:59:02.808Z,101492.07
2018-11-13T10:01:33.782Z,101486.86
2018-11-13T10:04:04.360Z,101491.60
2018-11-13T10:06:34.504Z,101497.86
2018-11-13T10:09:08.364Z,101492.67
2018-11-13T10:11:38.929Z,101502.47
2018-11-13T10:14:09.681Z,101506.62
2018-11-13T10:16:40.580Z,101505.67
2018-11-13T10:19:11.876Z,101511.70
2018-11-13T10:21:42.180Z,101504.87
2018-11-13T10:24:12.680Z,101503.09
2018-11-13T10:26:43.180Z,101501.59
2018-11-13T10:29:13.507Z,101505.22
2018-11-13T10:31:43.828Z,101508.57
2018-11-13T10:34:14.196Z,101511.98
2018-11-13T10:36:44.787Z,101516.49
2018-11-13T10:39:15.279Z,101517.19
2018-11-13T10:41:45.696Z,101517.69
2018-11-13T10:44:16.130Z,101523.34
2018-11-13T10:46:46.595Z,101519.51
2018-11-13T10:49:17.321Z,101517.73
2018-11-13T10:51:47.856Z,101517.44
2018-11-13T10:54:18.224Z,101528.33
2018-11-13T10:56:48.613Z,101525.58
2018-11-13T10:59:19.080Z,101539.50
2018-11-13T11:01:54.500Z,101525.50
2018-11-13T11:04:30.239Z,101533.36
2018-11-13T11:07:00.727Z,101532.97
2018-11-13T11:09:31.269Z,101537.04
2018-11-13T11:12:01.645Z,101534.00
2018-11-13T11:14:38.017Z,101527.88
2018-11-13T11:17:09.000Z,101538.06
2018-11-13T11:19:39.622Z,101537.16
2018-11-13T11:22:09.812Z,101533.41
2018-11-13T11:24:40.274Z,101531.35
2018-11-13T11:27:10.780Z,101519.97
2018-11-13T11:29:41.247Z,101525.74
2018-11-13T11:32:11.436Z,101538.27
2018-11-13T11:34:42.057Z,101532.33
2018-11-13T11:37:12.471Z,101535.80
2018-11-13T11:39:42.963Z,101535.00
2018-11-13T11:42:13.375Z,101530.97
2018-11-13T11:44:43.843Z,101537.92
2018-11-13T11:47:14.199Z,101537.36
2018-11-13T11:49:44.744Z,101541.83
2018-11-13T11:52:15.840Z,101540.55
2018-11-13T11:54:46.184Z,101542.40
2018-11-13T11:57:16.674Z,101541.77
2018-11-13T11:59:47.249Z,101547.66
2018-11-13T12:02:17.679Z,101529.61
2018-11-13T12:04:47.930Z,101527.36
2018-11-13T12:07:18.383Z,101532.02
2018-11-13T12:09:49.595Z,101526.28
2018-11-13T12:12:20.122Z,101538.33
2018-11-13T12:14:50.613Z,101541.18
2018-11-13T12:17:21.036Z,101532.05
2018-11-13T12:19:51.276Z,101541.12
2018-11-13T12:22:21.722Z,101544.98
2018-11-13T12:24:52.667Z,101543.84
2018-11-13T12:27:23.151Z,101548.86
2018-11-13T12:29:53.773Z,101563.04
2018-11-13T12:32:24.245Z,101562.63
2018-11-13T12:34:54.705Z,101564.50
2018-11-13T12:37:25.204Z,101567.44
2018-11-13T12:39:55.623Z,101561.00
2018-11-13T12:42:25.863Z,101564.33
2018-11-13T12:44:56.259Z,101565.89
2018-11-13T12:47:28.641Z,101565.49
2018-11-13T12:49:59.451Z,101567.08
2018-11-13T12:52:30.341Z,101571.42
2018-11-13T12:55:01.344Z,101574.64
2018-11-13T12:57:31.854Z,101569.83
2018-11-13T13:00:02.891Z,101571.70
2018-11-13T13:02:36.064Z,101569.31
2018-11-13T13:05:07.828Z,101562.48
2018-11-13T13:07:41.320Z,101561.77
2018-11-13T13:10:14.414Z,101564.69
2018-11-13T13:12:46.181Z,101568.02
2018-11-13T13:15:18.055Z,101564.63
2018-11-13T13:17:48.535Z,101557.06
2018-11-13T13:20:21.273Z,101554.41
2018-11-13T13:22:51.939Z,101555.25
2018-11-13T13:25:23.977Z,101560.53
2018-11-13T13:27:54.544Z,101556.81
2018-11-13T13:30:25.974Z,101557.31
2018-11-13T13:32:56.972Z,101559.52
2018-11-13T13:35:47.706Z,101560.97
2018-11-13T13:38:18.799Z,101566.90
2018-11-13T13:40:53.170Z,101566.85
2018-11-13T13:43:24.992Z,101562.29
2018-11-13T13:45:55.976Z,101571.72
2018-11-13T13:48:26.879Z,101571.72
2018-11-13T13:50:58.589Z,101584.88
2018-11-13T13:53:29.422Z,101595.34
2018-11-13T13:55:59.959Z,101601.12
2018-11-13T13:58:30.452Z,101594.72
2018-11-13T14:01:01.039Z,101591.86
2018-11-13T14:03:31.306Z,101598.52
2018-11-13T14:06:01.975Z,101611.55
2018-11-13T14:08:32.470Z,101613.88
2018-11-13T14:11:02.955Z,101627.00
2018-11-13T14:13:33.452Z,101626.19
2018-11-13T14:16:03.793Z,101646.27
2018-11-13T14:18:34.119Z,101644.75
2018-11-13T14:21:04.720Z,101653.04
2018-11-13T14:23:35.099Z,101658.23
2018-11-13T14:26:05.568Z,101668.64
2018-11-13T14:28:36.138Z,101663.91
2018-11-13T14:31:06.719Z,101671.21
2018-11-13T14:33:37.306Z,101670.00
2018-11-13T14:36:08.580Z,101676.31
2018-11-13T14:38:38.965Z,101680.27
2018-11-13T14:41:09.559Z,101687.11
2018-11-13T14:43:40.678Z,101686.36
2018-11-13T14:46:11.020Z,101691.12
2018-11-13T14:48:41.479Z,101690.95
2018-11-13T14:51:12.170Z,101692.01
2018-11-13T14:53:42.496Z,101691.00
2018-11-13T14:56:13.062Z,101699.97
2018-11-13T14:58:43.560Z,101705.61
2018-11-13T15:01:14.043Z,101706.42
2018-11-13T15:03:44.652Z,101714.48
2018-11-13T15:06:15.182Z,101717.83
2018-11-13T15:08:45.479Z,101719.13
2018-11-13T15:11:15.947Z,101730.57
2018-11-13T15:13:46.359Z,101735.59
2018-11-13T15:16:16.936Z,101738.77
2018-11-13T15:18:47.468Z,101745.14
2018-11-13T15:21:17.907Z,101745.87
2018-11-13T15:23:48.123Z,101747.72
2018-11-13T15:26:18.435Z,101754.38
2018-11-13T15:28:48.823Z,101758.53
2018-11-13T15:31:19.310Z,101762.66
2018-11-13T15:33:49.649Z,101766.72
2018-11-13T15:36:20.189Z,101770.46
2018-11-13T15:38:50.797Z,101770.51
2018-11-13T15:41:21.236Z,101768.68
2018-11-13T15:43:52.592Z,101771.23
2018-11-13T15:46:23.216Z,101773.91
2018-11-13T15:48:53.681Z,101782.42
2018-11-13T15:51:24.172Z,101781.27
2018-11-13T15:53:54.579Z,101783.55
2018-11-13T15:56:25.105Z,101786.36
2018-11-13T15:58:55.496Z,101785.02
2018-11-13T16:01:25.776Z,101791.41
2018-11-13T16:03:56.682Z,101796.42
2018-11-13T16:06:27.265Z,101804.32
2018-11-13T16:08:57.779Z,101810.62
2018-11-13T16:11:28.361Z,101812.06
2018-11-13T16:13:58.583Z,101814.41
2018-11-13T16:16:29.107Z,101822.66
2018-11-13T16:18:59.505Z,101820.72
2018-11-13T16:21:30.306Z,101828.06
2018-11-13T16:24:00.548Z,101830.42
2018-11-13T16:26:30.909Z,101830.05
2018-11-13T16:29:01.226Z,101826.80
2018-11-13T16:31:31.905Z,101830.11
2018-11-13T16:34:02.284Z,101837.45
2018-11-13T16:36:32.899Z,101848.62
2018-11-13T16:39:03.209Z,101844.91
2018-11-13T16:41:33.556Z,101854.41
2018-11-13T16:44:04.016Z,101859.86
2018-11-13T16:46:34.531Z,101866.47
2018-11-13T16:49:05.441Z,101871.44
2018-11-13T16:51:35.907Z,101865.09
2018-11-13T16:54:08.323Z,101874.12
2018-11-13T16:56:44.004Z,101875.66
2018-11-13T16:59:14.436Z,101876.70
2018-11-13T17:01:45.064Z,101872.56
2018-11-13T17:04:15.423Z,101875.61
2018-11-13T17:06:46.063Z,101882.13
2018-11-13T17:09:16.169Z,101879.00
2018-11-13T17:11:46.834Z,101882.50
2018-11-13T17:14:17.265Z,101885.89
2018-11-13T17:16:47.837Z,101886.39
2018-11-13T17:19:18.126Z,101889.27
2018-11-13T17:21:48.604Z,101895.00
2018-11-13T17:24:19.083Z,101893.19
2018-11-13T17:26:49.616Z,101903.65
2018-11-13T17:29:20.132Z,101911.63
2018-11-13T17:31:50.727Z,101906.73
2018-11-13T17:34:21.239Z,101915.17
2018-11-13T17:36:51.567Z,101913.92
2018-11-13T17:39:22.072Z,101919.14
2018-11-13T17:41:52.667Z,101915.55
2018-11-13T17:44:23.228Z,101918.43
2018-11-13T17:46:53.808Z,101915.84
2018-11-13T17:49:24.426Z,101919.39
2018-11-13T17:51:57.017Z,101928.11
2018-11-13T17:54:27.427Z,101927.73
2018-11-13T17:56:57.829Z,101920.73
2018-11-13T17:59:28.326Z,101927.58
2018-11-13T18:01:58.756Z,101930.08
2018-11-13T18:04:29.226Z,101940.76
2018-11-13T18:07:00.100Z,101939.39
2018-11-13T18:09:30.535Z,101942.31
2018-11-13T18:12:01.101Z,101937.75
2018-11-13T18:14:31.749Z,101943.12
2018-11-13T18:17:01.916Z,101946.47
2018-11-13T18:19:32.363Z,101939.16
2018-11-13T18:22:02.967Z,101938.74
2018-11-13T18:24:33.658Z,101934.67
2018-11-13T18:27:04.183Z,101938.66
2018-11-13T18:29:34.294Z,101940.91
2018-11-13T18:32:04.751Z,101938.89
2018-11-13T18:34:35.318Z,101938.27
2018-11-13T18:37:05.833Z,101937.17
2018-11-13T18:39:36.392Z,101937.77
2018-11-13T18:42:07.170Z,101945.28
2018-11-13T18:44:37.664Z,101948.17
2018-11-13T18:47:08.111Z,101944.26
2018-11-13T18:49:38.695Z,101947.68
2018-11-13T18:52:09.139Z,101946.50
2018-11-13T18:54:39.544Z,101948.28
2018-11-13T18:57:10.104Z,101946.84
2018-11-13T18:59:40.608Z,101955.14
2018-11-13T19:02:11.139Z,101955.56
2018-11-13T19:04:41.437Z,101957.62
2018-11-13T19:07:11.906Z,101956.92
2018-11-13T19:09:42.390Z,101957.25
2018-11-13T19:12:12.763Z,101966.30
2018-11-13T19:14:43.312Z,101965.56
2018-11-13T19:17:13.888Z,101967.95
2018-11-13T19:19:44.455Z,101968.56
2018-11-13T19:22:14.952Z,101971.41
2018-11-13T19:24:45.308Z,101977.94
2018-11-13T19:27:15.656Z,101978.47
2018-11-13T19:29:46.245Z,101984.48
2018-11-13T19:32:16.822Z,101982.70
2018-11-13T19:34:47.324Z,101983.64
2018-11-13T19:37:18.015Z,101992.80
2018-11-13T19:39:48.548Z,101995.97
2018-11-13T19:42:19.083Z,101997.61
2018-11-13T19:44:49.723Z,102002.82
2018-11-13T19:47:19.843Z,102004.47
2018-11-13T19:49:50.449Z,102002.91
2018-11-13T19:52:20.698Z,102005.92
2018-11-13T19:54:51.180Z,102011.48
2018-11-13T19:57:21.532Z,102011.25
2018-11-13T19:59:51.987Z,102023.48
2018-11-13T20:02:22.511Z,102020.92
2018-11-13T20:04:53.000Z,102019.63
2018-11-13T20:07:23.487Z,102024.58
2018-11-13T20:09:53.891Z,102027.97
2018-11-13T20:12:24.531Z,102033.63
2018-11-13T20:14:54.783Z,102038.58
2018-11-13T20:17:25.590Z,102039.19
2018-11-13T20:19:56.025Z,102039.34
2018-11-13T20:22:26.753Z,102036.72
2018-11-13T20:24:57.315Z,102036.36
2018-11-13T20:27:27.613Z,102038.91
2018-11-13T20:29:58.044Z,102036.89
2018-11-13T20:32:28.464Z,102038.22
2018-11-13T20:34:58.860Z,102042.58
2018-11-13T20:37:29.420Z,102045.34
2018-11-13T20:39:59.976Z,102046.22
2018-11-13T20:42:30.437Z,102050.81
2018-11-13T20:45:00.903Z,102056.68
2018-11-13T20:47:31.257Z,102055.23
2018-11-13T20:50:01.665Z,102053.13
2018-11-13T20:52:32.814Z,102044.98
2018-11-13T20:55:03.369Z,102053.03
2018-11-13T20:57:33.833Z,102054.94
2018-11-13T21:00:04.548Z,102058.97
2018-11-13T21:02:35.202Z,102059.11
2018-11-13T21:05:05.717Z,102063.38
2018-11-13T21:07:36.805Z,102065.38
2018-11-13T21:10:14.592Z,102064.80
2018-11-13T21:12:45.628Z,102065.31
2018-11-13T21:15:17.619Z,102074.78
2018-11-13T21:17:48.038Z,102072.56
2018-11-13T21:20:19.487Z,102077.67
2018-11-13T21:22:49.899Z,102081.48
2018-11-13T21:25:22.771Z,102084.02
2018-11-13T21:27:57.215Z,102086.59
2018-11-13T21:30:27.847Z,102097.84
2018-11-13T21:32:58.274Z,102092.67
2018-11-13T21:35:28.881Z,102098.78
2018-11-13T21:37:59.519Z,102104.48
2018-11-13T21:40:29.973Z,102108.89
2018-11-13T21:43:00.177Z,102108.08
2018-11-13T21:45:30.339Z,102110.69
2018-11-13T21:48:00.843Z,102109.05
2018-11-13T21:50:31.374Z,102112.09
2018-11-13T21:53:01.856Z,102118.55
2018-11-13T21:55:32.143Z,102122.53
2018-11-13T21:58:02.655Z,102124.39
2018-11-13T22:00:34.460Z,102116.59
2018-11-13T22:03:07.604Z,102123.92
2018-11-13T22:05:38.383Z,102121.26
2018-11-13T22:08:08.909Z,102122.16
2018-11-13T22:10:39.184Z,102122.08
2018-11-13T22:13:09.640Z,102123.10
2018-11-13T22:15:39.956Z,102123.64
2018-11-13T22:18:10.432Z,102126.23
2018-11-13T22:20:43.615Z,102127.47
2018-11-13T22:23:11.317Z,102132.66
2018-11-13T22:25:41.761Z,102135.63
2018-11-13T22:28:12.380Z,102133.41
2018-11-13T22:30:43.037Z,102138.50
2018-11-13T22:33:13.539Z,102140.64
2018-11-13T22:35:44.008Z,102142.85
2018-11-13T22:38:14.729Z,102142.25
2018-11-13T22:40:45.109Z,102147.63
2018-11-13T22:43:15.661Z,102145.95
2018-11-13T22:45:46.058Z,102151.05
2018-11-13T22:48:16.403Z,102154.17
2018-11-13T22:50:46.867Z,102148.02
2018-11-13T22:53:17.184Z,102154.03
2018-11-13T22:55:47.567Z,102151.84
2018-11-13T22:58:18.622Z,102159.28
2018-11-13T23:00:49.392Z,102159.81
2018-11-13T23:03:20.610Z,102163.22
2018-11-13T23:05:51.384Z,102165.29
2018-11-13T23:08:22.546Z,102169.33
2018-11-13T23:10:52.808Z,102168.11
2018-11-13T23:13:23.164Z,102174.06
2018-11-13T23:15:53.739Z,102168.13
2018-11-13T23:18:24.210Z,102171.53
2018-11-13T23:20:54.428Z,102171.64
2018-11-13T23:23:24.843Z,102174.20
2018-11-13T23:25:55.287Z,102177.36
2018-11-13T23:28:25.615Z,102178.69
2018-11-13T23:30:55.944Z,102183.55
2018-11-13T23:33:26.427Z,102185.75
2018-11-13T23:35:56.957Z,102184.45
2018-11-13T23:38:27.604Z,102185.34
2018-11-13T23:40:57.974Z,102188.72
2018-11-13T23:43:28.341Z,102189.11
2018-11-13T23:45:58.706Z,102196.97
2018-11-13T23:48:29.090Z,102191.89
2018-11-13T23:50:59.624Z,102195.36
2018-11-13T23:53:30.463Z,102199.62
2018-11-13T23:56:00.866Z,102198.38
2018-11-13T23:58:31.221Z,102206.58
